首页
METAR-TAF:

METAR-TAF

机场 :

Robins Air Force Base

Warner Robins, 喬治亞, 美国

纬度: 32-38N, 经度: 083-36W, 海拔: 90米

当前天气观测

该预报发布于54分钟前的19:56 UTC
风速4节,风向东北
温度 18°C
湿度 52%
气压 1013 hPa
能見度: 16.1公里
散云层高于4500英尺

METAR: KWRB 171956Z 04004KT 10SM SCT045 18/08 A2991 RMK AO2A SLP131 T01770077

时间: 15:50 (20:50 UTC)

预报

该预报发布于7小时和50分钟前的13:00 UTC
预报有效从17日的 13点(UTC)到 18日的 19点(UTC)
风速6节,风向北转东北
能见度10公里或以上
散云层高于4000英尺
成为
从 17日的 21点(UTC)到 17日的 22点(UTC)
风速6节,风向多变
能见度10公里或以上
散云层高于3000英尺
成为
从 17日的 22点(UTC)到 17日的 23点(UTC)
风速6节,风向多变
能见度10公里或以上
少量云层高于3000英尺
成为
从 18日的 17点(UTC)到 18日的 18点(UTC)
风速10节,风向西,有时为15节阵风
能见度10公里或以上
天空无云

TAF: KWRB 171300Z 1713/1819 02006KT 9999 SCT040 QNH3004INS BECMG 1721/1722 VRB06KT 9999 SCT030 QNH2993INS BECMG 1722/1723 VRB06KT 9999 FEW030 QNH2986INS BECMG 1817/1818 26010G15KT 9999 SKC QNH2979INS TX15/1720Z TN07/1713Z

超过4000个机场的气象观测和天气预报(METAR&TAF报告)。

可查询的气象台以黄色和红色小点在地图上表示。

将鼠标移到小点上方,可查看气象台名称。

然后点击查看天气观测和预报。

如需切换地图:点击带黑十字的绿色按钮放大地图;点击带横线的绿色按钮缩小地图;或者点击绿色箭头查看邻近地区的地图。


METAR-TAF: